Time;durP1;ratioP1;P1;durP2;ratioP2;P2;SDS_P1;SDS_P2;PMS_P1;PMS_P2;Temp;Humidity;BMP_temperature;BMP_pressure;BME280_temperature;BME280_humidity;BME280_pressure;Samples;Min_cycle;Max_cycle;Signal;HPM_P1;HPM_P2
2021/07/20 00:01:08;;;;;;;20.88;17.05;;;;;;;16.31;88.61;96118.34;4991939;28;20462;-76
2021/07/20 00:03:33;;;;;;;23.33;18.30;;;;;;;16.31;88.81;96125.38;4992194;28;20453;-76
2021/07/20 00:05:58;;;;;;;21.55;18.20;;;;;;;16.30;88.21;96115.88;4991172;28;20815;-76
2021/07/20 00:08:24;;;;;;;21.77;17.23;;;;;;;16.19;89.23;96114.94;4993083;28;20407;-76
2021/07/20 00:10:51;;;;;;;23.43;17.53;;;;;;;16.16;89.91;96124.81;4995488;28;20863;-76
2021/07/20 00:13:17;;;;;;;21.20;17.95;;;;;;;16.20;89.93;96124.47;4994606;28;20775;-76
2021/07/20 00:15:44;;;;;;;19.70;17.05;;;;;;;16.23;89.22;96107.69;4993849;28;20419;-76
2021/07/20 00:18:11;;;;;;;23.65;18.52;;;;;;;16.28;88.97;96110.78;4993350;28;20433;-76
2021/07/20 00:20:37;;;;;;;24.05;17.23;;;;;;;16.22;89.19;96113.88;4993242;28;20422;-76
2021/07/20 00:23:03;;;;;;;19.60;17.37;;;;;;;16.25;89.01;96118.88;4993874;28;20560;-76
2021/07/20 00:25:29;;;;;;;23.15;17.95;;;;;;;16.31;88.50;96118.34;4992977;28;20994;-76
2021/07/20 00:27:55;;;;;;;21.50;17.57;;;;;;;16.32;88.18;96113.97;4992413;28;20418;-76
2021/07/20 00:30:22;;;;;;;26.45;18.58;;;;;;;16.40;87.72;96115.03;4991919;28;20974;-76
2021/07/20 00:32:49;;;;;;;20.35;17.67;;;;;;;16.38;87.97;96121.31;4991519;28;20895;-77
2021/07/20 00:35:15;;;;;;;20.83;17.65;;;;;;;16.31;87.47;96118.34;4991403;28;20504;-76
2021/07/20 00:37:41;;;;;;;22.80;17.20;;;;;;;16.26;87.84;96123.13;4990342;28;20908;-76
2021/07/20 00:40:10;;;;;;;22.98;17.02;;;;;;;16.46;87.18;96116.28;4991547;28;20437;-77
2021/07/20 00:42:35;;;;;;;23.30;18.67;;;;;;;16.25;88.53;96112.81;4991818;28;20422;-75
2021/07/20 00:45:01;;;;;;;27.98;19.10;;;;;;;16.26;89.31;96114.47;4991515;28;20415;-76
2021/07/20 00:47:26;;;;;;;22.42;18.65;;;;;;;16.10;90.31;96115.69;4991623;28;20505;-77
2021/07/20 00:49:53;;;;;;;26.10;18.93;;;;;;;16.03;91.53;96111.06;4992000;28;20414;-77
2021/07/20 00:52:18;;;;;;;22.35;18.25;;;;;;;16.07;91.68;96108.09;4990699;28;20450;-76
2021/07/20 00:54:44;;;;;;;28.63;18.70;;;;;;;16.13;90.51;96105.00;4992065;28;20418;-76
2021/07/20 00:57:10;;;;;;;24.40;19.13;;;;;;;16.18;90.32;96105.47;4990402;28;20961;-77
2021/07/20 00:59:37;;;;;;;20.55;17.10;;;;;;;16.28;88.88;96112.53;4991664;28;20507;-76
2021/07/20 01:02:03;;;;;;;18.08;15.30;;;;;;;16.34;87.27;96110.28;4991955;28;20427;-76
2021/07/20 01:04:28;;;;;;;21.42;15.80;;;;;;;16.14;87.21;96106.66;4992184;28;20432;-77
2021/07/20 01:06:56;;;;;;;19.93;16.77;;;;;;;16.18;87.16;96113.28;4991839;28;20518;-76
2021/07/20 01:09:22;;;;;;;18.15;16.17;;;;;;;16.17;87.19;96108.19;4991918;28;20441;-76
2021/07/20 01:11:50;;;;;;;21.23;16.60;;;;;;;16.19;87.88;96108.91;4990702;28;20429;-76
2021/07/20 01:14:16;;;;;;;19.17;16.88;;;;;;;15.97;88.45;96104.53;4992127;28;20422;-76
2021/07/20 01:16:43;;;;;;;21.20;17.50;;;;;;;15.72;90.88;96111.69;4990418;28;20426;-77
2021/07/20 01:19:13;;;;;;;26.25;18.35;;;;;;;15.67;93.23;96099.94;4990735;28;20421;-76
2021/07/20 01:21:40;;;;;;;22.30;18.13;;;;;;;15.55;93.91;96101.69;4991972;28;20422;-77
2021/07/20 01:24:08;;;;;;;21.17;18.15;;;;;;;15.34;96.29;96095.50;4991743;28;20436;-77
2021/07/20 01:26:34;;;;;;;24.80;19.75;;;;;;;15.19;97.90;96098.34;4990414;28;20857;-77
2021/07/20 01:29:02;;;;;;;24.60;18.95;;;;;;;15.07;98.37;96096.66;4991713;28;20432;-77
2021/07/20 01:31:30;;;;;;;24.13;19.50;;;;;;;15.13;100.00;96092.75;4991599;28;20411;-77
2021/07/20 01:33:58;;;;;;;28.17;18.77;;;;;;;15.42;94.21;96090.53;4991524;28;20497;-76
2021/07/20 01:36:25;;;;;;;21.20;17.23;;;;;;;15.47;92.64;96091.03;4990822;28;20465;-76
2021/07/20 01:38:51;;;;;;;22.90;18.60;;;;;;;15.44;92.78;96086.84;4993090;28;20861;-77
2021/07/20 01:41:19;;;;;;;21.83;17.65;;;;;;;15.39;93.34;96088.19;4995422;28;20422;-76
2021/07/20 01:43:47;;;;;;;21.13;17.73;;;;;;;15.39;93.13;96081.19;4995418;28;20788;-77
2021/07/20 01:46:14;;;;;;;23.60;18.17;;;;;;;15.38;94.63;96086.50;4995027;28;20745;-77
2021/07/20 01:48:43;;;;;;;21.25;17.77;;;;;;;15.42;94.52;96080.09;4994750;28;20431;-77
2021/07/20 01:51:09;;;;;;;32.60;18.17;;;;;;;15.47;94.64;96085.81;4994317;28;20421;-76
2021/07/20 01:53:36;;;;;;;21.20;18.13;;;;;;;15.45;95.47;96085.91;4994451;28;20469;-76
2021/07/20 01:56:02;;;;;;;23.05;17.25;;;;;;;15.44;94.88;96079.03;4994467;28;20446;-76
2021/07/20 01:58:29;;;;;;;23.10;18.47;;;;;;;15.48;95.41;96090.06;4994333;28;20426;-76
2021/07/20 02:00:57;;;;;;;23.27;18.65;;;;;;;15.47;94.43;96088.41;4993857;28;20419;-76
2021/07/20 02:03:57;;;;;;;29.13;17.25;;;;;;;15.47;94.40;96080.59;4994844;28;20423;-76
2021/07/20 02:09:07;;;;;;;22.30;18.52;;;;;;;15.50;93.39;96077.75;4994243;28;20425;-76
2021/07/20 02:11:36;;;;;;;23.15;18.35;;;;;;;15.41;94.82;96081.03;4992861;28;20987;-76
2021/07/20 02:14:07;;;;;;;21.52;18.05;;;;;;;15.31;95.67;96080.09;4992808;28;20430;-75
2021/07/20 02:16:39;;;;;;;22.15;18.00;;;;;;;15.30;93.96;96076.66;4993619;28;20431;-76
2021/07/20 02:19:08;;;;;;;22.75;17.83;;;;;;;15.21;94.75;96088.63;4993690;28;20441;-76
2021/07/20 02:21:38;;;;;;;19.47;17.27;;;;;;;15.03;96.50;96089.19;4993703;28;20562;-75
2021/07/20 02:24:04;;;;;;;20.13;17.30;;;;;;;15.01;96.59;96090.13;4993466;28;20437;-76
2021/07/20 02:26:30;;;;;;;20.88;18.38;;;;;;;14.94;97.34;96093.31;4993318;28;20418;-76
2021/07/20 02:28:57;;;;;;;22.03;18.37;;;;;;;15.00;97.38;96087.63;4993665;28;20414;-76
2021/07/20 02:31:25;;;;;;;22.88;18.17;;;;;;;15.02;97.29;96090.97;4997647;28;20431;-78
2021/07/20 02:33:52;;;;;;;23.00;18.00;;;;;;;15.03;96.97;96087.41;5000213;28;20422;-77
2021/07/20 02:36:18;;;;;;;21.45;17.42;;;;;;;15.07;96.54;96093.22;5005953;28;20438;-78
2021/07/20 02:38:45;;;;;;;21.23;17.23;;;;;;;15.24;93.85;96093.63;5006350;28;20438;-78
2021/07/20 02:41:12;;;;;;;20.85;17.83;;;;;;;15.11;94.23;96087.66;5006187;28;20809;-78
2021/07/20 02:43:39;;;;;;;21.00;17.55;;;;;;;14.95;95.56;96090.59;5006082;28;20425;-78
2021/07/20 02:46:07;;;;;;;26.20;19.50;;;;;;;14.63;100.00;96089.56;5001877;28;20521;-78
2021/07/20 02:48:36;;;;;;;25.27;18.70;;;;;;;14.37;100.00;96089.66;5002708;28;20418;-78
2021/07/20 02:51:02;;;;;;;26.67;19.85;;;;;;;14.12;100.00;96080.16;5001513;28;20469;-78
2021/07/20 02:53:28;;;;;;;21.75;19.02;;;;;;;14.04;100.00;96087.69;5002034;28;20426;-78
2021/07/20 02:55:54;;;;;;;25.65;19.52;;;;;;;13.91;100.00;96085.16;5001396;28;20430;-78
2021/07/20 02:58:21;;;;;;;26.80;19.88;;;;;;;13.76;100.00;96084.47;5001517;28;20473;-78
2021/07/20 03:00:47;;;;;;;27.70;19.60;;;;;;;13.72;100.00;96075.22;5001185;28;20525;-78
2021/07/20 03:03:13;;;;;;;24.83;20.20;;;;;;;13.72;100.00;96082.16;5000607;28;20438;-78
2021/07/20 03:05:40;;;;;;;24.00;19.63;;;;;;;13.89;100.00;96083.59;4999910;28;20750;-78
2021/07/20 03:08:08;;;;;;;20.90;18.08;;;;;;;14.14;100.00;96088.72;5000109;28;20466;-78
2021/07/20 03:10:36;;;;;;;21.27;16.67;;;;;;;14.25;100.00;96085.34;5000316;28;20800;-77
2021/07/20 03:13:04;;;;;;;19.27;15.65;;;;;;;14.46;96.86;96088.13;5000330;28;20426;-77
2021/07/20 03:15:31;;;;;;;20.43;16.80;;;;;;;14.31;99.31;96087.47;4999349;28;20457;-77
2021/07/20 03:17:58;;;;;;;19.10;16.92;;;;;;;14.29;100.00;96085.00;4999962;28;20422;-78
2021/07/20 03:20:26;;;;;;;20.83;16.80;;;;;;;14.35;100.00;96088.94;4999346;28;20434;-78
2021/07/20 03:22:54;;;;;;;21.08;17.55;;;;;;;14.50;99.25;96089.63;4999421;28;20916;-78
2021/07/20 03:25:21;;;;;;;23.77;17.55;;;;;;;14.55;99.05;96084.06;4999522;28;20564;-78
2021/07/20 03:27:47;;;;;;;23.85;18.35;;;;;;;14.50;100.00;96093.06;4997797;28;20437;-78
2021/07/20 03:30:14;;;;;;;21.38;17.95;;;;;;;14.45;100.00;96081.28;4999346;28;20433;-78
2021/07/20 03:32:44;;;;;;;23.42;19.02;;;;;;;14.37;100.00;96086.22;4999547;28;20414;-78
2021/07/20 03:35:12;;;;;;;24.38;19.27;;;;;;;14.10;100.00;96084.66;4997639;28;20423;-78
2021/07/20 03:37:38;;;;;;;23.80;18.73;;;;;;;13.87;100.00;96085.47;4999651;28;20414;-77
2021/07/20 03:40:06;;;;;;;24.38;18.80;;;;;;;13.67;100.00;96081.66;4999066;28;20800;-78
2021/07/20 03:42:32;;;;;;;21.67;18.57;;;;;;;13.52;100.00;96084.41;4999406;28;20694;-78
2021/07/20 03:44:57;;;;;;;22.98;19.40;;;;;;;13.42;100.00;96087.75;4997891;28;20962;-78
2021/07/20 03:47:24;;;;;;;21.47;18.60;;;;;;;13.34;100.00;96083.06;4998666;28;20414;-77
2021/07/20 03:49:51;;;;;;;25.33;19.88;;;;;;;13.54;100.00;96087.75;4997732;28;20425;-78
2021/07/20 03:52:18;;;;;;;23.85;18.77;;;;;;;13.70;100.00;96086.66;4999687;28;20513;-78
2021/07/20 03:54:44;;;;;;;25.35;19.92;;;;;;;13.70;100.00;96087.50;4999562;28;20449;-78
2021/07/20 03:57:15;;;;;;;23.13;19.52;;;;;;;13.64;100.00;96085.31;4999423;28;20749;-78
2021/07/20 03:59:42;;;;;;;27.02;20.10;;;;;;;13.68;100.00;96097.19;4999349;28;20426;-77
2021/07/20 04:02:09;;;;;;;24.88;19.67;;;;;;;13.73;100.00;96092.50;4998506;28;20431;-78
2021/07/20 04:04:38;;;;;;;23.15;19.35;;;;;;;13.84;100.00;96096.13;4999255;28;20488;-78
2021/07/20 04:07:06;;;;;;;24.30;18.65;;;;;;;13.97;100.00;96091.69;4999304;28;20438;-78
2021/07/20 04:09:32;;;;;;;23.88;18.13;;;;;;;14.10;100.00;96096.88;4997384;28;20484;-78
2021/07/20 04:11:58;;;;;;;20.70;18.10;;;;;;;14.20;100.00;96093.50;4999793;28;20410;-78
2021/07/20 04:14:26;;;;;;;20.85;17.77;;;;;;;14.27;100.00;96097.28;4998793;28;20418;-78
2021/07/20 04:16:51;;;;;;;19.60;17.50;;;;;;;14.28;100.00;96098.97;4997568;28;20486;-78
2021/07/20 04:19:17;;;;;;;23.73;18.75;;;;;;;14.34;100.00;96100.28;4997614;28;20454;-78
2021/07/20 04:21:43;;;;;;;22.40;18.20;;;;;;;14.34;100.00;96099.47;4997976;28;20501;-77
2021/07/20 04:24:09;;;;;;;28.77;20.03;;;;;;;14.45;100.00;96102.13;4998753;28;20429;-78
2021/07/20 04:26:36;;;;;;;19.67;17.17;;;;;;;14.50;100.00;96107.88;4997816;28;20496;-78
2021/07/20 04:29:02;;;;;;;20.38;15.93;;;;;;;14.54;100.00;96109.31;4997775;28;20450;-77
2021/07/20 04:31:29;;;;;;;29.67;17.38;;;;;;;14.43;100.00;96117.06;4996165;28;20410;-77
2021/07/20 04:33:55;;;;;;;22.00;17.48;;;;;;;14.62;98.83;96111.34;4995169;28;20426;-78
2021/07/20 04:36:22;;;;;;;23.90;18.38;;;;;;;14.58;99.85;96118.56;4995768;28;20939;-78
2021/07/20 04:38:48;;;;;;;22.07;17.23;;;;;;;14.57;100.00;96119.50;4996960;28;20434;-77
2021/07/20 04:41:15;;;;;;;24.02;17.98;;;;;;;14.60;100.00;96121.88;4995438;28;20424;-77
2021/07/20 04:43:43;;;;;;;23.35;17.75;;;;;;;14.61;100.00;96117.50;4997844;28;20505;-78
2021/07/20 04:46:08;;;;;;;20.27;18.13;;;;;;;14.70;100.00;96122.06;4997105;28;20423;-78
2021/07/20 04:48:35;;;;;;;19.03;16.93;;;;;;;14.78;100.00;96119.69;4995164;28;20432;-78
2021/07/20 04:51:01;;;;;;;20.92;15.98;;;;;;;14.97;98.76;96116.56;4995893;28;20429;-78
2021/07/20 04:53:27;;;;;;;21.95;15.13;;;;;;;14.99;98.01;96123.31;4997190;28;20414;-78
2021/07/20 04:55:53;;;;;;;15.85;14.13;;;;;;;15.01;98.17;96121.41;4997349;28;20413;-78
2021/07/20 04:58:18;;;;;;;17.45;14.63;;;;;;;15.12;97.25;96127.63;4997606;28;20501;-79
2021/07/20 05:00:49;;;;;;;19.98;14.93;;;;;;;15.28;96.85;96128.13;4997552;28;20418;-79
2021/07/20 05:03:15;;;;;;;15.77;13.20;;;;;;;15.31;95.78;96135.72;4995568;28;20477;-78
2021/07/20 05:05:43;;;;;;;17.33;13.15;;;;;;;15.33;95.28;96133.84;4995519;28;20836;-78
2021/07/20 05:08:12;;;;;;;16.50;14.50;;;;;;;15.35;95.88;96133.69;4997916;28;20473;-77
2021/07/20 05:10:38;;;;;;;16.73;14.27;;;;;;;15.35;96.37;96131.94;4994671;28;20434;-79
2021/07/20 05:13:07;;;;;;;21.30;14.07;;;;;;;15.31;96.89;96137.50;4993152;28;20425;-77
2021/07/20 05:15:32;;;;;;;17.30;14.70;;;;;;;15.22;98.15;96134.63;4995029;28;20626;-77
2021/07/20 05:17:58;;;;;;;17.13;14.27;;;;;;;15.21;99.73;96138.19;4996812;28;20414;-78
2021/07/20 05:20:25;;;;;;;16.67;14.40;;;;;;;15.28;100.00;96133.34;4995826;28;20834;-77
2021/07/20 05:22:53;;;;;;;19.70;15.43;;;;;;;15.34;100.00;96139.88;4996843;28;20417;-78
2021/07/20 05:25:18;;;;;;;20.10;17.45;;;;;;;15.41;98.90;96143.69;4996081;28;20873;-77
2021/07/20 05:27:49;;;;;;;20.85;17.75;;;;;;;15.48;98.24;96145.72;4996062;28;20502;-77
2021/07/20 05:30:17;;;;;;;21.33;16.30;;;;;;;15.68;97.52;96140.75;4994899;28;20436;-77
2021/07/20 05:32:44;;;;;;;21.42;16.67;;;;;;;15.82;98.11;96150.16;4992621;28;20442;-77
2021/07/20 05:35:12;;;;;;;20.10;16.25;;;;;;;15.42;96.49;96134.91;4993460;28;20457;-77
2021/07/20 05:37:40;;;;;;;20.60;16.73;;;;;;;15.36;99.05;96149.25;4993021;28;20436;-77
2021/07/20 05:40:08;;;;;;;24.25;17.10;;;;;;;15.34;98.70;96142.47;5002353;28;20430;-78
2021/07/20 05:42:35;;;;;;;21.23;16.27;;;;;;;15.53;98.68;96142.75;4988638;28;20491;-77
2021/07/20 05:45:01;;;;;;;20.85;16.80;;;;;;;15.43;99.19;96141.81;4979401;28;20447;-77
2021/07/20 05:47:29;;;;;;;23.45;17.25;;;;;;;15.23;100.00;96136.28;4988169;28;20464;-77
2021/07/20 05:49:54;;;;;;;20.33;16.95;;;;;;;15.20;99.96;96139.16;4997407;28;20889;-77
2021/07/20 05:52:20;;;;;;;24.73;16.70;;;;;;;15.05;100.00;96140.28;4995516;28;20445;-77
2021/07/20 05:54:46;;;;;;;20.67;16.08;;;;;;;15.05;100.00;96140.28;4997367;28;20888;-77
2021/07/20 05:57:15;;;;;;;20.27;16.47;;;;;;;15.24;100.00;96137.16;4997257;28;20510;-77
2021/07/20 05:59:43;;;;;;;21.35;16.05;;;;;;;15.35;100.00;96142.38;4982687;28;20914;-77
2021/07/20 06:02:10;;;;;;;22.23;15.32;;;;;;;15.34;100.00;96150.31;4977601;28;20822;-77
2021/07/20 06:04:37;;;;;;;20.17;16.33;;;;;;;15.34;100.00;96142.47;4977168;28;20934;-77
2021/07/20 06:07:04;;;;;;;21.17;16.40;;;;;;;15.39;100.00;96146.44;4990621;28;20529;-76
2021/07/20 06:09:30;;;;;;;25.67;16.00;;;;;;;15.66;98.73;96140.06;4994360;28;20411;-77
2021/07/20 06:11:57;;;;;;;20.17;15.13;;;;;;;15.73;98.31;96149.91;4992776;28;20422;-76
2021/07/20 06:14:24;;;;;;;20.77;15.98;;;;;;;15.91;97.22;96146.84;4995324;28;20454;-77
2021/07/20 06:16:50;;;;;;;25.23;15.07;;;;;;;16.08;95.36;96148.94;4994416;28;20930;-76
2021/07/20 06:19:16;;;;;;;20.80;14.43;;;;;;;16.31;97.46;96147.09;4994957;28;20513;-77
2021/07/20 06:21:43;;;;;;;19.03;13.90;;;;;;;16.71;96.31;96146.53;4998478;28;20446;-77
2021/07/20 06:24:10;;;;;;;19.45;14.18;;;;;;;16.83;91.60;96147.34;4996686;28;20454;-78
2021/07/20 06:26:36;;;;;;;19.35;14.50;;;;;;;16.78;90.00;96154.75;4997825;28;20450;-78
2021/07/20 06:29:03;;;;;;;16.42;13.75;;;;;;;17.22;90.33;96147.63;5006723;28;20897;-77
2021/07/20 06:31:30;;;;;;;17.67;13.65;;;;;;;17.65;90.17;96158.78;5017127;28;20491;-75
2021/07/20 06:33:56;;;;;;;16.80;12.77;;;;;;;18.12;84.13;96161.75;5013259;28;20414;-77
2021/07/20 06:36:22;;;;;;;18.48;12.55;;;;;;;18.37;81.49;96159.63;5014137;28;20405;-76
2021/07/20 06:38:49;;;;;;;18.42;13.45;;;;;;;18.49;83.08;96163.78;4998281;28;20450;-77
2021/07/20 06:41:16;;;;;;;15.93;12.30;;;;;;;18.33;82.29;96166.09;4975126;28;20831;-77
2021/07/20 06:43:42;;;;;;;16.77;12.27;;;;;;;18.10;79.11;96162.84;4974654;28;20495;-77
2021/07/20 06:46:08;;;;;;;21.33;12.65;;;;;;;17.41;84.25;96163.47;4973704;28;20470;-76
2021/07/20 06:48:38;;;;;;;16.50;13.38;;;;;;;17.54;85.18;96166.72;4974494;28;20432;-77
2021/07/20 06:51:06;;;;;;;16.20;12.20;;;;;;;17.09;84.90;96166.13;4974495;28;20420;-77
2021/07/20 06:53:34;;;;;;;15.43;11.60;;;;;;;17.80;85.53;96164.53;4975890;28;20419;-76
2021/07/20 06:56:01;;;;;;;18.67;12.45;;;;;;;18.34;82.60;96168.56;4974570;28;20432;-77
2021/07/20 06:58:28;;;;;;;18.57;12.63;;;;;;;18.51;83.99;96172.34;4978621;28;20476;-78
2021/07/20 07:00:55;;;;;;;17.13;11.98;;;;;;;18.72;80.63;96171.44;4994085;28;20418;-77
2021/07/20 07:03:24;;;;;;;17.92;12.57;;;;;;;18.76;82.42;96165.78;4993950;28;20437;-77
2021/07/20 07:05:53;;;;;;;15.07;12.55;;;;;;;18.98;79.14;96167.28;4994690;28;20453;-76
2021/07/20 07:08:22;;;;;;;15.02;12.52;;;;;;;19.17;81.32;96176.13;4992845;28;20459;-78
2021/07/20 07:10:49;;;;;;;15.00;12.40;;;;;;;19.40;78.00;96164.38;4993649;28;20505;-76
2021/07/20 07:13:16;;;;;;;18.13;11.82;;;;;;;19.51;74.98;96158.13;4993043;28;20472;-77
2021/07/20 07:15:42;;;;;;;16.25;12.20;;;;;;;19.52;76.70;96157.97;4991833;28;20441;-76
2021/07/20 07:18:08;;;;;;;16.08;11.93;;;;;;;19.09;74.88;96167.16;4994013;28;20505;-78
2021/07/20 07:20:35;;;;;;;15.70;10.60;;;;;;;18.92;76.70;96162.63;4994784;28;20541;-78
2021/07/20 07:23:03;;;;;;;18.90;11.80;;;;;;;18.88;77.47;96163.84;4996964;28;20425;-77
2021/07/20 07:25:29;;;;;;;19.35;11.50;;;;;;;19.50;76.10;96159.06;4994885;28;20928;-77
2021/07/20 07:27:56;;;;;;;16.25;10.57;;;;;;;19.88;76.26;96158.19;5000200;28;20433;-77
2021/07/20 07:30:22;;;;;;;16.57;10.57;;;;;;;20.21;73.51;96155.94;5016669;28;20462;-77
2021/07/20 07:32:48;;;;;;;14.18;10.35;;;;;;;19.43;72.03;96164.09;5017029;28;20421;-78
2021/07/20 07:35:14;;;;;;;16.48;10.02;;;;;;;19.63;72.72;96159.63;5016224;28;20417;-78
2021/07/20 07:37:40;;;;;;;13.02;9.65;;;;;;;19.58;72.70;96160.03;5015254;28;20945;-77
2021/07/20 07:40:11;;;;;;;16.17;10.77;;;;;;;19.53;71.03;96159.63;5015306;28;20417;-77
2021/07/20 07:42:38;;;;;;;14.47;9.07;;;;;;;19.94;76.41;96162.84;5017598;28;20445;-77
2021/07/20 07:45:07;;;;;;;11.50;9.30;;;;;;;20.04;71.10;96163.63;5016354;28;20424;-77
2021/07/20 07:47:33;;;;;;;15.32;10.38;;;;;;;20.31;69.51;96164.63;5017312;28;20512;-77
2021/07/20 07:49:59;;;;;;;14.70;10.13;;;;;;;20.21;68.67;96164.69;5015555;28;20425;-75
2021/07/20 07:52:25;;;;;;;18.33;10.30;;;;;;;20.40;68.12;96161.13;5016873;28;20504;-77
2021/07/20 07:54:51;;;;;;;15.05;9.80;;;;;;;19.78;69.47;96162.63;5015459;28;20854;-77
2021/07/20 07:57:19;;;;;;;13.20;10.10;;;;;;;19.92;71.35;96167.44;5016354;28;20416;-77
2021/07/20 07:59:48;;;;;;;12.27;7.80;;;;;;;20.76;66.14;96169.06;5015742;28;20452;-78
2021/07/20 08:02:21;;;;;;;11.25;7.28;;;;;;;21.24;60.42;96163.41;5015121;28;20916;-76
2021/07/20 08:04:48;;;;;;;11.50;7.13;;;;;;;21.22;61.90;96173.28;5011646;28;20412;-76
2021/07/20 08:07:17;;;;;;;12.77;7.90;;;;;;;21.24;59.91;96167.84;5011227;28;20421;-75
2021/07/20 08:09:45;;;;;;;10.68;6.93;;;;;;;21.36;61.86;96177.22;5011451;28;20408;-77
2021/07/20 08:12:13;;;;;;;9.73;6.72;;;;;;;21.40;62.26;96167.22;5011140;28;20429;-77
2021/07/20 08:14:42;;;;;;;16.98;8.07;;;;;;;21.46;62.49;96177.13;5012175;28;20424;-77
2021/07/20 08:17:08;;;;;;;15.25;8.57;;;;;;;20.30;61.20;96176.13;5013636;28;20765;-77
2021/07/20 08:19:37;;;;;;;12.85;8.52;;;;;;;20.14;63.48;96178.56;5011442;28;20479;-75
2021/07/20 08:22:07;;;;;;;12.18;8.43;;;;;;;20.94;62.82;96169.91;5011558;28;20428;-76
2021/07/20 08:24:35;;;;;;;15.73;8.95;;;;;;;20.56;61.41;96181.53;5006509;28;20416;-77
2021/07/20 08:27:07;;;;;;;11.65;8.65;;;;;;;21.12;64.66;96182.25;5007005;28;20791;-76
2021/07/20 08:29:36;;;;;;;12.75;8.50;;;;;;;21.02;60.42;96174.41;5003819;28;20423;-75
2021/07/20 08:32:09;;;;;;;15.40;9.48;;;;;;;20.99;59.92;96174.75;5003683;28;20409;-76
2021/07/20 08:34:41;;;;;;;13.40;9.38;;;;;;;21.53;63.33;96172.88;4999019;28;20486;-77
2021/07/20 08:37:09;;;;;;;18.35;9.95;;;;;;;22.01;62.11;96170.69;5010920;28;20887;-76
2021/07/20 08:39:35;;;;;;;15.23;10.35;;;;;;;22.18;58.11;96175.94;5015666;28;20432;-76
2021/07/20 08:42:14;;;;;;;17.30;9.23;;;;;;;22.29;59.35;96174.84;5017245;28;20440;-77
2021/07/20 08:44:57;;;;;;;16.77;9.15;;;;;;;22.35;59.05;96182.09;5008147;28;20433;-77
2021/07/20 08:47:37;;;;;;;15.65;9.75;;;;;;;22.08;60.86;96171.72;5013004;28;20419;-77
2021/07/20 08:50:16;;;;;;;14.82;9.90;;;;;;;21.77;62.13;96179.28;5016609;28;20409;-77
2021/07/20 08:52:45;;;;;;;14.90;10.45;;;;;;;21.77;62.26;96169.59;5016843;28;20460;-77
2021/07/20 08:55:13;;;;;;;16.20;10.63;;;;;;;21.95;61.17;96167.72;5014795;28;20459;-77
2021/07/20 08:57:45;;;;;;;16.52;10.75;;;;;;;21.92;59.59;96170.66;5016172;28;20478;-76
2021/07/20 09:00:13;;;;;;;19.83;11.57;;;;;;;21.92;59.07;96168.03;5014853;28;20428;-77
2021/07/20 09:02:48;;;;;;;17.23;12.07;;;;;;;22.07;61.44;96167.44;5016559;28;20478;-77
2021/07/20 09:05:21;;;;;;;15.77;11.20;;;;;;;21.93;60.46;96169.69;5014863;28;20427;-77
2021/07/20 09:07:57;;;;;;;16.17;11.07;;;;;;;22.07;59.76;96170.09;5015986;28;20842;-76
2021/07/20 09:10:24;;;;;;;14.65;11.02;;;;;;;21.21;60.81;96174.28;5017015;28;20428;-78
2021/07/20 09:12:51;;;;;;;15.25;10.77;;;;;;;22.00;61.00;96167.25;5016721;28;20486;-77
2021/07/20 09:15:20;;;;;;;18.45;11.68;;;;;;;21.68;57.88;96166.06;5016575;28;20459;-78
2021/07/20 09:17:56;;;;;;;17.98;10.95;;;;;;;22.36;67.33;96175.84;5015466;28;20930;-78
2021/07/20 09:20:23;;;;;;;15.43;11.20;;;;;;;22.82;58.75;96164.91;5016786;28;20432;-77
2021/07/20 09:22:53;;;;;;;18.80;11.30;;;;;;;22.89;60.62;96177.31;5015009;28;20428;-76
2021/07/20 09:25:23;;;;;;;17.65;11.32;;;;;;;22.94;56.72;96168.91;5015055;28;20408;-77
2021/07/20 09:27:53;;;;;;;14.47;10.97;;;;;;;23.39;58.96;96170.25;5013967;28;20464;-77
2021/07/20 09:30:21;;;;;;;15.65;11.02;;;;;;;23.46;58.12;96171.25;5014988;28;20821;-77
2021/07/20 09:33:02;;;;;;;17.17;10.73;;;;;;;22.80;56.38;96175.63;5014340;28;20423;-77
2021/07/20 09:35:34;;;;;;;13.07;10.32;;;;;;;22.08;57.53;96169.91;5014553;28;20494;-77
2021/07/20 09:38:09;;;;;;;17.30;10.82;;;;;;;21.49;58.98;96167.09;5013832;28;20456;-77
2021/07/20 09:40:43;;;;;;;17.52;11.45;;;;;;;21.42;60.03;96176.59;4976626;28;20436;-77
2021/07/20 09:43:17;;;;;;;16.77;11.70;;;;;;;21.68;58.65;96170.50;4975504;28;20463;-77
2021/07/20 09:45:45;;;;;;;19.73;11.38;;;;;;;21.39;59.11;96174.25;4975210;28;20511;-77
2021/07/20 09:48:23;;;;;;;23.00;12.40;;;;;;;20.87;61.38;96171.47;4974964;28;20446;-73
2021/07/20 09:51:01;;;;;;;15.20;11.53;;;;;;;20.89;63.91;96172.19;4976388;28;20500;-76
2021/07/20 09:53:53;;;;;;;14.82;11.27;;;;;;;21.74;60.78;96165.44;4974764;28;20465;-76
2021/07/20 09:56:32;;;;;;;17.25;11.63;;;;;;;22.19;59.28;96174.13;4974478;28;20426;-76
2021/07/20 09:59:09;;;;;;;19.50;13.27;;;;;;;22.71;61.48;96169.50;4989415;28;20907;-76
2021/07/20 10:01:39;;;;;;;20.55;12.90;;;;;;;22.63;59.31;96166.03;5013460;28;20424;-76
2021/07/20 10:04:14;;;;;;;15.07;12.30;;;;;;;22.44;60.65;96167.13;5013571;28;20413;-76
2021/07/20 10:06:43;;;;;;;18.17;13.10;;;;;;;22.45;57.47;96164.31;5013335;28;20425;-74
2021/07/20 10:09:15;;;;;;;20.45;12.85;;;;;;;22.47;57.43;96166.78;5013505;28;20851;-74
2021/07/20 10:11:47;;;;;;;19.88;13.13;;;;;;;23.03;63.06;96167.94;5013406;28;20417;-74
2021/07/20 10:14:32;;;;;;;20.98;13.55;;;;;;;23.33;53.38;96161.19;5013224;28;20504;-74
2021/07/20 10:17:09;;;;;;;19.55;13.57;;;;;;;23.75;55.96;96156.69;5013239;28;20420;-75
2021/07/20 10:19:40;;;;;;;18.52;13.23;;;;;;;23.03;54.02;96169.78;5011890;28;20791;-75
2021/07/20 10:22:11;;;;;;;18.25;13.70;;;;;;;22.12;54.47;96159.88;5013212;28;20421;-75
2021/07/20 10:24:42;;;;;;;18.08;12.75;;;;;;;22.50;59.69;96165.66;5013249;28;20911;-75
2021/07/20 10:27:13;;;;;;;21.10;12.27;;;;;;;22.55;57.32;96158.09;5013000;28;20449;-75
2021/07/20 10:29:58;;;;;;;19.45;13.85;;;;;;;23.09;54.79;96172.56;5012880;28;20443;-75
2021/07/20 10:32:28;;;;;;;16.60;13.05;;;;;;;23.38;57.67;96158.84;5011837;28;20432;-75
2021/07/20 10:35:00;;;;;;;17.75;13.40;;;;;;;23.27;55.06;96156.53;5013172;28;20444;-75
2021/07/20 10:37:28;;;;;;;19.80;13.25;;;;;;;23.40;55.11;96153.41;5012893;28;20903;-75
2021/07/20 10:39:59;;;;;;;19.63;13.30;;;;;;;23.02;53.64;96153.06;5011607;28;20790;-75
2021/07/20 10:42:30;;;;;;;21.35;13.88;;;;;;;22.39;55.47;96157.03;5013085;28;20810;-75
2021/07/20 10:45:00;;;;;;;21.75;14.40;;;;;;;21.80;55.95;96149.97;5012906;28;20425;-75
2021/07/20 10:47:34;;;;;;;18.02;13.90;;;;;;;22.61;54.61;96149.50;5012481;28;20409;-75
2021/07/20 10:50:05;;;;;;;15.73;13.35;;;;;;;23.03;57.30;96148.63;5012571;28;20918;-75
2021/07/20 10:52:47;;;;;;;19.77;13.57;;;;;;;23.54;56.76;96146.59;5012850;28;20471;-75
2021/07/20 10:55:21;;;;;;;19.20;13.30;;;;;;;23.58;58.18;96156.72;5012487;28;20415;-76
2021/07/20 10:57:55;;;;;;;19.83;14.00;;;;;;;22.96;55.13;96163.50;5011352;28;20428;-75
2021/07/20 11:00:24;;;;;;;19.83;13.07;;;;;;;22.18;55.81;96157.47;5012499;28;20437;-75
2021/07/20 11:02:59;;;;;;;18.67;13.45;;;;;;;22.46;59.45;96159.88;5006421;28;20951;-76
2021/07/20 11:05:30;;;;;;;19.85;14.25;;;;;;;22.94;59.81;96161.81;4984783;28;20476;-75
2021/07/20 11:08:00;;;;;;;19.08;14.20;;;;;;;22.58;54.30;96166.53;4984680;28;20426;-75
2021/07/20 11:10:32;;;;;;;17.25;14.07;;;;;;;22.39;54.30;96159.66;4984601;28;20419;-75
2021/07/20 11:13:05;;;;;;;22.17;14.88;;;;;;;23.05;54.33;96159.84;4992068;28;20923;-76
2021/07/20 11:15:33;;;;;;;20.80;13.70;;;;;;;23.51;56.89;96150.44;4991243;28;20441;-76
2021/07/20 11:18:04;;;;;;;23.30;13.90;;;;;;;23.60;56.95;96154.69;4992658;28;20936;-76
2021/07/20 11:20:33;;;;;;;18.42;13.77;;;;;;;23.71;57.04;96155.38;4983095;28;20514;-76
2021/07/20 11:22:58;;;;;;;18.37;14.07;;;;;;;23.78;56.70;96149.25;4974637;28;20435;-75
2021/07/20 11:25:25;;;;;;;19.27;13.97;;;;;;;23.81;55.00;96145.44;4971476;28;20778;-75